createdAt,value
2018-05-25T00:00:56.884Z,16.60
2018-05-25T00:03:23.098Z,16.60
2018-05-25T00:05:49.309Z,16.50
2018-05-25T00:08:15.527Z,16.50
2018-05-25T00:10:41.714Z,16.40
2018-05-25T00:13:07.962Z,16.40
2018-05-25T00:15:34.201Z,16.40
2018-05-25T00:18:01.145Z,16.30
2018-05-25T00:20:27.469Z,16.30
2018-05-25T00:22:53.693Z,16.30
2018-05-25T00:25:19.925Z,16.30
2018-05-25T00:27:46.151Z,16.20
2018-05-25T00:30:12.385Z,16.20
2018-05-25T00:32:38.632Z,16.10
2018-05-25T00:35:04.875Z,16.10
2018-05-25T00:37:31.111Z,16.10
2018-05-25T00:39:57.337Z,16.10
2018-05-25T00:42:23.558Z,16.00
2018-05-25T00:44:50.540Z,16.00
2018-05-25T00:47:16.763Z,16.00
2018-05-25T00:49:43.846Z,15.90
2018-05-25T00:52:10.084Z,15.90
2018-05-25T00:54:36.303Z,15.90
2018-05-25T00:57:03.273Z,15.70
2018-05-25T00:59:29.488Z,15.70
2018-05-25T01:01:55.741Z,15.70
2018-05-25T01:04:22.681Z,15.70
2018-05-25T01:06:48.916Z,15.60
2018-05-25T01:09:15.153Z,15.60
2018-05-25T01:11:41.365Z,15.60
2018-05-25T01:14:07.710Z,15.60
2018-05-25T01:16:33.960Z,15.60
2018-05-25T01:19:00.176Z,15.60
2018-05-25T01:21:26.466Z,15.60
2018-05-25T01:23:52.690Z,15.50
2018-05-25T01:26:18.963Z,15.50
2018-05-25T01:28:45.922Z,15.60
2018-05-25T01:31:12.865Z,15.60
2018-05-25T01:33:39.090Z,15.50
2018-05-25T01:36:05.292Z,15.60
2018-05-25T01:38:31.559Z,15.60
2018-05-25T01:40:57.774Z,15.60
2018-05-25T01:43:24.027Z,15.60
2018-05-25T01:45:50.260Z,15.60
2018-05-25T01:48:17.227Z,15.60
2018-05-25T01:50:43.492Z,15.60
2018-05-25T01:53:09.704Z,15.60
2018-05-25T01:55:35.930Z,15.60
2018-05-25T01:58:02.196Z,15.60
2018-05-25T02:00:28.416Z,15.50
2018-05-25T02:02:54.648Z,15.50
2018-05-25T02:05:20.884Z,15.40
2018-05-25T02:07:47.090Z,15.40
2018-05-25T02:10:13.314Z,15.40
2018-05-25T02:12:39.568Z,15.40
2018-05-25T02:15:05.822Z,15.40
2018-05-25T02:17:32.776Z,15.30
2018-05-25T02:19:58.997Z,15.30
2018-05-25T02:22:25.203Z,15.30
2018-05-25T02:24:51.434Z,15.30
2018-05-25T02:27:17.652Z,15.20
2018-05-25T02:29:44.613Z,15.10
2018-05-25T02:32:10.850Z,15.10
2018-05-25T02:34:37.077Z,15.10
2018-05-25T02:37:03.320Z,15.10
2018-05-25T02:39:30.296Z,15.00
2018-05-25T02:41:56.520Z,14.90
2018-05-25T02:44:23.493Z,14.90
2018-05-25T02:46:50.443Z,14.80
2018-05-25T02:49:17.566Z,14.80
2018-05-25T02:51:43.788Z,14.80
2018-05-25T02:54:10.004Z,14.70
2018-05-25T02:56:36.258Z,14.70
2018-05-25T02:59:02.569Z,14.70
2018-05-25T03:01:28.955Z,14.60
2018-05-25T03:03:55.172Z,14.60
2018-05-25T03:06:21.386Z,14.50
2018-05-25T03:08:48.369Z,14.40
2018-05-25T03:11:14.592Z,14.40
2018-05-25T03:13:40.833Z,14.30
2018-05-25T03:16:07.072Z,14.30
2018-05-25T03:18:34.031Z,14.20
2018-05-25T03:21:00.345Z,14.20
2018-05-25T03:23:26.628Z,14.20
2018-05-25T03:25:52.857Z,14.20
2018-05-25T03:28:19.076Z,14.20
2018-05-25T03:30:45.303Z,14.20
2018-05-25T03:33:11.520Z,14.10
2018-05-25T03:35:37.738Z,14.10
2018-05-25T03:38:03.986Z,14.10
2018-05-25T03:40:30.232Z,14.10
2018-05-25T03:42:56.466Z,14.00
2018-05-25T03:45:22.694Z,14.00
2018-05-25T03:47:48.913Z,14.00
2018-05-25T03:50:15.173Z,14.00
2018-05-25T03:52:41.395Z,14.00
2018-05-25T03:55:07.622Z,14.00
2018-05-25T03:57:33.846Z,14.00
2018-05-25T04:00:12.234Z,14.10
2018-05-25T04:02:39.540Z,14.10
2018-05-25T04:05:05.778Z,14.10
2018-05-25T04:07:32.014Z,14.20
2018-05-25T04:09:58.245Z,14.20
2018-05-25T04:12:24.482Z,14.20
2018-05-25T04:14:50.862Z,14.20
2018-05-25T04:17:17.096Z,14.30
2018-05-25T04:19:43.618Z,14.30
2018-05-25T04:22:09.846Z,14.30
2018-05-25T04:24:36.076Z,14.40
2018-05-25T04:27:02.326Z,14.40
2018-05-25T04:29:28.549Z,14.40
2018-05-25T04:31:54.792Z,14.50
2018-05-25T04:34:21.040Z,14.50
2018-05-25T04:36:47.275Z,14.50
2018-05-25T04:39:13.510Z,14.50
2018-05-25T04:41:39.746Z,14.50
2018-05-25T04:44:05.976Z,14.60
2018-05-25T04:46:32.238Z,14.60
2018-05-25T04:48:58.450Z,14.60
2018-05-25T04:51:25.402Z,14.70
2018-05-25T04:53:52.370Z,14.80
2018-05-25T04:56:18.591Z,14.70
2018-05-25T04:58:45.549Z,14.80
2018-05-25T05:01:12.512Z,14.90
2018-05-25T05:03:38.752Z,14.90
2018-05-25T05:06:05.740Z,15.00
2018-05-25T05:08:31.959Z,15.00
2018-05-25T05:10:58.952Z,15.00
2018-05-25T05:13:25.163Z,15.00
2018-05-25T05:15:52.129Z,15.10
2018-05-25T05:18:18.520Z,15.10
2018-05-25T05:20:44.853Z,15.20
2018-05-25T05:23:11.082Z,15.30
2018-05-25T05:25:37.319Z,15.30
2018-05-25T05:28:03.573Z,15.40
2018-05-25T05:30:29.829Z,15.50
2018-05-25T05:32:56.053Z,15.50
2018-05-25T05:35:22.269Z,15.60
2018-05-25T05:37:48.522Z,15.70
2018-05-25T05:40:14.737Z,15.90
2018-05-25T05:42:40.974Z,16.00
2018-05-25T05:45:07.193Z,16.10
2018-05-25T05:47:34.196Z,16.40
2018-05-25T05:50:00.447Z,16.40
2018-05-25T05:52:26.677Z,16.60
2018-05-25T05:54:52.929Z,16.70
2018-05-25T05:57:19.204Z,16.70
2018-05-25T05:59:45.431Z,16.80
2018-05-25T06:02:11.665Z,16.80
2018-05-25T06:04:37.863Z,16.90
2018-05-25T06:07:04.134Z,17.10
2018-05-25T06:09:30.350Z,17.20
2018-05-25T06:11:56.578Z,17.30
2018-05-25T06:14:23.879Z,17.40
2018-05-25T06:16:50.683Z,17.40
2018-05-25T06:19:17.800Z,17.60
2018-05-25T06:21:44.022Z,17.60
2018-05-25T06:24:10.224Z,17.70
2018-05-25T06:26:37.202Z,18.00
2018-05-25T06:29:04.166Z,18.00
2018-05-25T06:31:30.404Z,18.00
2018-05-25T06:33:56.642Z,18.10
2018-05-25T06:36:22.958Z,18.20
2018-05-25T06:38:49.967Z,18.20
2018-05-25T06:41:16.338Z,18.30
2018-05-25T06:43:42.582Z,18.30
2018-05-25T06:46:08.800Z,18.30
2018-05-25T06:48:35.078Z,18.40
2018-05-25T06:51:02.422Z,18.40
2018-05-25T06:53:28.839Z,18.50
2018-05-25T06:55:55.564Z,18.60
2018-05-25T06:58:22.823Z,18.70
2018-05-25T07:00:49.242Z,18.70
2018-05-25T07:03:15.693Z,18.70
2018-05-25T07:05:42.082Z,18.70
2018-05-25T07:08:08.312Z,18.80
2018-05-25T07:10:34.528Z,18.90
2018-05-25T07:13:01.503Z,19.20
2018-05-25T07:15:27.723Z,19.20
2018-05-25T07:17:54.697Z,19.40
2018-05-25T07:20:21.689Z,19.50
2018-05-25T07:22:47.931Z,19.50
2018-05-25T07:25:14.143Z,19.60
2018-05-25T07:27:40.392Z,19.60
2018-05-25T07:30:06.635Z,19.60
2018-05-25T07:32:32.850Z,19.60
2018-05-25T07:34:59.451Z,19.60
2018-05-25T07:37:25.706Z,19.60
2018-05-25T07:39:51.949Z,19.60
2018-05-25T07:42:18.163Z,19.60
2018-05-25T07:44:44.369Z,19.60
2018-05-25T07:47:10.609Z,19.60
2018-05-25T07:49:37.580Z,19.60
2018-05-25T07:52:03.837Z,19.60
2018-05-25T07:54:30.062Z,19.70
2018-05-25T07:56:56.271Z,19.60
2018-05-25T07:59:22.518Z,19.70
2018-05-25T08:01:48.733Z,19.70
2018-05-25T08:04:14.954Z,19.70
2018-05-25T08:06:41.175Z,19.80
2018-05-25T08:09:07.432Z,19.80
2018-05-25T08:11:33.694Z,19.80
2018-05-25T08:13:59.903Z,19.90
2018-05-25T08:16:26.114Z,20.00
2018-05-25T08:18:53.292Z,20.10
2018-05-25T08:21:19.517Z,20.10
2018-05-25T08:23:45.931Z,20.20
2018-05-25T08:26:12.143Z,20.30
2018-05-25T08:28:38.339Z,20.40
2018-05-25T08:31:05.331Z,20.60
2018-05-25T08:33:31.561Z,20.60
2018-05-25T08:35:57.801Z,20.80
2018-05-25T08:38:24.016Z,20.90
2018-05-25T08:40:51.023Z,21.10
2018-05-25T08:43:17.267Z,21.10
2018-05-25T08:45:43.498Z,21.30
2018-05-25T08:48:09.766Z,21.60
2018-05-25T08:50:35.999Z,21.80
2018-05-25T08:53:02.210Z,21.90
2018-05-25T08:55:28.456Z,21.90
2018-05-25T08:57:54.666Z,21.80
2018-05-25T09:00:21.642Z,21.40
2018-05-25T09:02:47.854Z,21.40
2018-05-25T09:05:14.833Z,21.30
2018-05-25T09:07:41.072Z,21.30
2018-05-25T09:10:07.298Z,21.30
2018-05-25T09:12:34.265Z,21.60
2018-05-25T09:15:00.494Z,21.60
2018-05-25T09:17:26.724Z,21.70
2018-05-25T09:19:53.713Z,22.00
2018-05-25T09:22:19.944Z,21.90
2018-05-25T09:24:46.205Z,22.10
2018-05-25T09:27:12.436Z,22.00
2018-05-25T09:29:38.701Z,22.10
2018-05-25T09:32:04.966Z,22.20
2018-05-25T09:34:31.221Z,22.20
2018-05-25T09:36:58.218Z,22.20
2018-05-25T09:39:24.445Z,22.20
2018-05-25T09:41:50.672Z,22.40
2018-05-25T09:44:17.648Z,22.20
2018-05-25T09:46:43.866Z,22.20
2018-05-25T09:49:10.854Z,21.90
2018-05-25T09:51:37.069Z,21.90
2018-05-25T09:54:03.323Z,21.80
2018-05-25T09:56:29.551Z,22.00
2018-05-25T09:58:55.793Z,22.40
2018-05-25T10:01:22.064Z,23.00
2018-05-25T10:03:48.284Z,23.60
2018-05-25T10:06:14.517Z,24.10
2018-05-25T10:08:40.844Z,24.80
2018-05-25T10:11:07.042Z,25.40
2018-05-25T10:13:33.283Z,25.90
2018-05-25T10:15:59.523Z,26.30
2018-05-25T10:18:25.756Z,26.60
2018-05-25T10:20:52.071Z,26.70
2018-05-25T10:23:18.340Z,26.50
2018-05-25T10:25:44.587Z,26.10
2018-05-25T10:28:10.828Z,25.70
2018-05-25T10:30:37.111Z,25.70
2018-05-25T10:33:03.401Z,25.60
2018-05-25T10:35:29.688Z,25.20
2018-05-25T10:37:56.675Z,24.30
2018-05-25T10:40:22.920Z,24.30
2018-05-25T10:42:49.173Z,24.00
2018-05-25T10:45:15.405Z,23.70
2018-05-25T10:47:41.671Z,23.60
2018-05-25T10:50:07.909Z,23.50
2018-05-25T10:52:34.124Z,24.00
2018-05-25T10:55:00.394Z,24.40
2018-05-25T10:57:26.626Z,24.80
2018-05-25T10:59:53.029Z,25.50
2018-05-25T11:02:20.010Z,26.80
2018-05-25T11:04:46.245Z,26.70
2018-05-25T11:07:12.476Z,27.10
2018-05-25T11:09:38.677Z,26.90
2018-05-25T11:12:05.022Z,26.60
2018-05-25T11:14:31.224Z,26.20
2018-05-25T11:16:57.432Z,25.80
2018-05-25T11:19:24.657Z,24.90
2018-05-25T11:21:50.924Z,24.80
2018-05-25T11:24:17.907Z,24.50
2018-05-25T11:26:44.144Z,24.50
2018-05-25T11:29:10.382Z,25.00
2018-05-25T11:31:36.643Z,25.90
2018-05-25T11:34:02.918Z,26.70
2018-05-25T11:36:29.179Z,27.00
2018-05-25T11:38:56.150Z,27.50
2018-05-25T11:41:23.082Z,28.00
2018-05-25T11:43:49.330Z,28.00
2018-05-25T11:46:15.604Z,27.80
2018-05-25T11:48:42.563Z,28.00
2018-05-25T11:51:08.821Z,27.90
2018-05-25T11:53:35.038Z,28.60
2018-05-25T11:56:01.250Z,29.40
2018-05-25T11:58:27.493Z,30.00
2018-05-25T12:00:53.712Z,29.90
2018-05-25T12:03:19.951Z,29.40
2018-05-25T12:05:46.211Z,28.70
2018-05-25T12:08:12.433Z,28.10
2018-05-25T12:10:38.681Z,27.50
2018-05-25T12:13:04.958Z,27.50
2018-05-25T12:15:31.922Z,27.90
2018-05-25T12:17:58.133Z,27.90
2018-05-25T12:20:24.577Z,27.80
2018-05-25T12:22:50.797Z,27.60
2018-05-25T12:25:17.001Z,27.40
2018-05-25T12:27:43.405Z,27.20
2018-05-25T12:30:09.629Z,27.00
2018-05-25T12:32:35.843Z,26.80
2018-05-25T12:35:02.153Z,26.70
2018-05-25T12:37:29.127Z,27.60
2018-05-25T12:39:55.335Z,27.60
2018-05-25T12:42:22.323Z,28.20
2018-05-25T12:45:00.687Z,28.20
2018-05-25T12:47:26.957Z,28.00
2018-05-25T12:49:53.178Z,27.70
2018-05-25T12:52:19.435Z,27.50
2018-05-25T12:54:45.676Z,27.20
2018-05-25T12:57:11.901Z,26.90
2018-05-25T12:59:38.162Z,26.70
2018-05-25T13:02:05.180Z,28.00
2018-05-25T13:04:31.403Z,27.90
2018-05-25T13:06:57.636Z,29.20
2018-05-25T13:09:23.869Z,29.90
2018-05-25T13:11:50.082Z,29.70
2018-05-25T13:14:17.062Z,28.10
2018-05-25T13:16:43.667Z,28.10
2018-05-25T13:19:09.872Z,27.20
2018-05-25T13:21:36.238Z,26.40
2018-05-25T13:24:02.488Z,25.90
2018-05-25T13:26:28.706Z,25.50
2018-05-25T13:28:55.014Z,25.20
2018-05-25T13:31:21.302Z,24.80
2018-05-25T13:33:51.006Z,24.40
2018-05-25T13:36:17.266Z,24.00
2018-05-25T13:38:43.519Z,23.60
2018-05-25T13:41:09.968Z,23.30
2018-05-25T13:43:36.270Z,23.30
2018-05-25T13:46:02.535Z,23.30
2018-05-25T13:48:28.772Z,23.20
2018-05-25T13:50:55.005Z,22.90
2018-05-25T13:53:21.253Z,22.50
2018-05-25T13:55:47.493Z,22.30
2018-05-25T13:58:13.727Z,22.40
2018-05-25T14:00:39.982Z,22.60
2018-05-25T14:03:06.219Z,23.00
2018-05-25T14:05:32.448Z,23.60
2018-05-25T14:07:58.691Z,24.20
2018-05-25T14:10:24.920Z,24.50
2018-05-25T14:12:51.257Z,24.60
2018-05-25T14:15:17.640Z,25.00
2018-05-25T14:17:43.885Z,25.40
2018-05-25T14:20:10.097Z,25.80
2018-05-25T14:22:36.356Z,26.20
2018-05-25T14:25:02.640Z,26.50
2018-05-25T14:27:30.248Z,26.70
2018-05-25T14:29:56.626Z,27.00
2018-05-25T14:32:24.219Z,27.30
2018-05-25T14:34:50.752Z,27.00
2018-05-25T14:37:18.195Z,26.20
2018-05-25T14:39:44.523Z,25.20
2018-05-25T14:42:12.155Z,24.40
2018-05-25T14:44:38.549Z,23.80
2018-05-25T14:47:05.919Z,23.50
2018-05-25T14:49:33.649Z,23.10
2018-05-25T14:52:00.043Z,22.90
2018-05-25T14:54:28.032Z,22.70
2018-05-25T14:56:54.450Z,22.60
2018-05-25T14:59:21.525Z,22.50
2018-05-25T15:01:47.794Z,22.60
2018-05-25T15:04:15.217Z,22.60
2018-05-25T15:06:41.664Z,22.80
2018-05-25T15:09:07.917Z,23.10
2018-05-25T15:11:34.165Z,23.80
2018-05-25T15:14:00.439Z,24.80
2018-05-25T15:16:27.514Z,25.60
2018-05-25T15:18:54.488Z,26.40
2018-05-25T15:21:22.023Z,26.40
2018-05-25T15:23:49.210Z,26.50
2018-05-25T15:26:15.474Z,26.50
2018-05-25T15:28:41.695Z,26.70
2018-05-25T15:31:09.495Z,27.10
2018-05-25T15:33:35.738Z,27.00
2018-05-25T15:36:02.055Z,27.10
2018-05-25T15:38:29.518Z,27.00
2018-05-25T15:40:55.873Z,27.20
2018-05-25T15:43:22.087Z,27.30
2018-05-25T15:45:48.314Z,27.30
2018-05-25T15:48:14.562Z,26.90
2018-05-25T15:50:40.935Z,26.50
2018-05-25T15:53:07.894Z,26.30
2018-05-25T15:55:34.280Z,26.30
2018-05-25T15:58:00.544Z,26.30
2018-05-25T16:00:26.794Z,26.30
2018-05-25T16:02:54.438Z,26.30
2018-05-25T16:05:21.948Z,26.40
2018-05-25T16:07:48.355Z,26.60
2018-05-25T16:10:14.592Z,26.80
2018-05-25T16:12:41.914Z,26.90
2018-05-25T16:15:09.306Z,27.30
2018-05-25T16:17:35.625Z,27.30
2018-05-25T16:20:02.626Z,27.80
2018-05-25T16:22:28.950Z,27.80
2018-05-25T16:24:55.286Z,28.10
2018-05-25T16:27:21.535Z,28.30
2018-05-25T16:29:47.737Z,28.30
2018-05-25T16:32:14.711Z,28.00
2018-05-25T16:34:40.961Z,28.00
2018-05-25T16:37:07.187Z,27.80
2018-05-25T16:39:34.182Z,28.00
2018-05-25T16:42:00.410Z,28.00
2018-05-25T16:44:26.638Z,27.90
2018-05-25T16:46:52.871Z,27.50
2018-05-25T16:49:19.091Z,27.40
2018-05-25T16:51:46.089Z,26.80
2018-05-25T16:54:12.325Z,26.80
2018-05-25T16:56:38.571Z,26.50
2018-05-25T16:59:04.799Z,26.20
2018-05-25T17:01:31.013Z,25.80
2018-05-25T17:03:57.295Z,25.30
2018-05-25T17:06:23.569Z,24.80
2018-05-25T17:08:49.801Z,24.80
2018-05-25T17:11:16.070Z,24.80
2018-05-25T17:13:42.291Z,24.90
2018-05-25T17:16:08.701Z,25.10
2018-05-25T17:18:34.913Z,25.30
2018-05-25T17:21:01.858Z,25.10
2018-05-25T17:23:28.862Z,24.80
2018-05-25T17:25:55.095Z,24.80
2018-05-25T17:28:21.364Z,24.40
2018-05-25T17:30:47.682Z,24.10
2018-05-25T17:33:13.898Z,23.90
2018-05-25T17:35:40.169Z,23.70
2018-05-25T17:38:06.399Z,23.60
2018-05-25T17:40:32.628Z,23.40
2018-05-25T17:42:58.902Z,23.20
2018-05-25T17:45:25.150Z,23.10
2018-05-25T17:47:51.402Z,23.10
2018-05-25T17:50:17.624Z,23.10
2018-05-25T17:52:44.583Z,22.70
2018-05-25T17:55:10.822Z,22.70
2018-05-25T17:57:37.028Z,22.60
2018-05-25T18:00:03.344Z,22.70
2018-05-25T18:02:30.314Z,22.60
2018-05-25T18:04:57.286Z,22.50
2018-05-25T18:07:23.506Z,22.40
2018-05-25T18:09:49.754Z,22.30
2018-05-25T18:12:16.022Z,22.20
2018-05-25T18:14:42.239Z,22.20
2018-05-25T18:17:09.206Z,22.00
2018-05-25T18:19:35.479Z,22.00
2018-05-25T18:22:01.765Z,21.80
2018-05-25T18:24:28.038Z,21.70
2018-05-25T18:26:54.371Z,21.50
2018-05-25T18:29:20.585Z,21.40
2018-05-25T18:31:46.821Z,21.20
2018-05-25T18:34:13.038Z,21.10
2018-05-25T18:36:39.303Z,20.90
2018-05-25T18:39:05.554Z,20.80
2018-05-25T18:41:31.789Z,20.60
2018-05-25T18:43:58.787Z,20.30
2018-05-25T18:46:25.008Z,20.30
2018-05-25T18:48:51.257Z,20.10
2018-05-25T18:51:17.492Z,20.00
2018-05-25T18:53:43.756Z,19.80
2018-05-25T18:56:10.018Z,19.70
2018-05-25T18:58:36.231Z,19.60
2018-05-25T19:01:02.485Z,19.40
2018-05-25T19:03:28.871Z,19.20
2018-05-25T19:05:55.119Z,19.10
2018-05-25T19:08:22.122Z,18.90
2018-05-25T19:10:48.366Z,18.90
2018-05-25T19:13:14.611Z,18.80
2018-05-25T19:15:40.834Z,18.70
2018-05-25T19:18:07.144Z,18.60
2018-05-25T19:20:33.362Z,18.50
2018-05-25T19:22:59.660Z,18.40
2018-05-25T19:25:25.929Z,18.30
2018-05-25T19:27:52.383Z,18.20
2018-05-25T19:30:18.633Z,18.20
2018-05-25T19:32:44.903Z,18.10
2018-05-25T19:35:11.911Z,18.10
2018-05-25T19:37:38.134Z,18.00
2018-05-25T19:40:04.415Z,18.00
2018-05-25T19:42:30.655Z,17.90
2018-05-25T19:44:56.975Z,17.80
2018-05-25T19:47:23.266Z,17.80
2018-05-25T19:49:49.522Z,17.70
2018-05-25T19:52:15.864Z,17.60
2018-05-25T19:54:42.137Z,17.50
2018-05-25T19:57:08.365Z,17.40
2018-05-25T19:59:34.629Z,17.40
2018-05-25T20:02:00.935Z,17.30
2018-05-25T20:04:27.231Z,17.30
2018-05-25T20:06:53.483Z,17.20
2018-05-25T20:09:19.739Z,17.10
2018-05-25T20:11:46.733Z,17.00
2018-05-25T20:14:13.036Z,17.00
2018-05-25T20:16:40.075Z,16.90
2018-05-25T20:19:06.329Z,16.80
2018-05-25T20:21:33.295Z,16.80
2018-05-25T20:23:59.560Z,16.70
2018-05-25T20:26:25.811Z,16.70
2018-05-25T20:28:52.170Z,16.70
2018-05-25T20:31:18.652Z,16.60
2018-05-25T20:33:44.900Z,16.60
2018-05-25T20:36:11.889Z,16.50
2018-05-25T20:38:38.142Z,16.50
2018-05-25T20:41:04.382Z,16.40
2018-05-25T20:43:30.630Z,16.30
2018-05-25T20:45:56.911Z,16.30
2018-05-25T20:48:23.174Z,16.20
2018-05-25T20:50:49.410Z,16.10
2018-05-25T20:53:16.411Z,16.00
2018-05-25T20:55:42.634Z,16.00
2018-05-25T20:58:08.890Z,15.90
2018-05-25T21:00:35.140Z,15.80
2018-05-25T21:03:01.372Z,15.80
2018-05-25T21:05:27.628Z,15.80
2018-05-25T21:07:53.893Z,15.70
2018-05-25T21:10:20.126Z,15.70
2018-05-25T21:12:46.344Z,15.70
2018-05-25T21:15:12.591Z,15.70
2018-05-25T21:17:38.823Z,15.60
2018-05-25T21:20:05.066Z,15.60
2018-05-25T21:22:31.349Z,15.60
2018-05-25T21:24:58.314Z,15.50
2018-05-25T21:27:25.303Z,15.40
2018-05-25T21:29:51.702Z,15.40
2018-05-25T21:32:17.913Z,15.30
2018-05-25T21:34:44.220Z,15.30
2018-05-25T21:37:10.501Z,15.30
2018-05-25T21:39:36.760Z,15.30
2018-05-25T21:42:02.994Z,15.20
2018-05-25T21:44:29.240Z,15.20
2018-05-25T21:46:55.463Z,15.10
2018-05-25T21:49:21.672Z,15.00
2018-05-25T21:51:47.921Z,15.00
2018-05-25T21:54:14.149Z,15.00
2018-05-25T21:56:40.378Z,15.00
2018-05-25T21:59:06.637Z,15.00
2018-05-25T22:01:32.864Z,15.00
2018-05-25T22:03:59.112Z,15.00
2018-05-25T22:06:25.348Z,15.00
2018-05-25T22:08:51.612Z,14.90
2018-05-25T22:11:17.854Z,14.90
2018-05-25T22:13:44.128Z,14.80
2018-05-25T22:16:10.355Z,14.80
2018-05-25T22:18:36.593Z,14.70
2018-05-25T22:21:02.851Z,14.80
2018-05-25T22:23:29.012Z,14.70
2018-05-25T22:25:55.966Z,14.70
2018-05-25T22:28:22.954Z,14.70
2018-05-25T22:30:49.493Z,14.70
2018-05-25T22:33:15.714Z,14.70
2018-05-25T22:35:42.693Z,14.70
2018-05-25T22:38:08.903Z,14.60
2018-05-25T22:40:35.867Z,14.60
2018-05-25T22:43:14.947Z,14.60
2018-05-25T22:45:53.262Z,14.60
2018-05-25T22:48:31.740Z,14.50
2018-05-25T22:51:10.074Z,14.40
2018-05-25T22:53:42.771Z,14.40
2018-05-25T22:56:09.726Z,14.40
2018-05-25T22:58:36.698Z,14.40
2018-05-25T23:01:02.970Z,14.40
2018-05-25T23:03:29.182Z,14.40
2018-05-25T23:05:56.150Z,14.30
2018-05-25T23:08:22.395Z,14.30
2018-05-25T23:10:48.610Z,14.20
2018-05-25T23:13:15.576Z,14.20
2018-05-25T23:15:42.558Z,14.20
2018-05-25T23:18:08.778Z,14.20
2018-05-25T23:20:35.734Z,14.20
2018-05-25T23:23:02.719Z,14.10
2018-05-25T23:25:28.931Z,14.10
2018-05-25T23:27:55.878Z,14.10
2018-05-25T23:30:22.944Z,14.10
2018-05-25T23:32:49.917Z,14.10
2018-05-25T23:35:16.131Z,14.10
2018-05-25T23:37:43.115Z,14.00
2018-05-25T23:40:09.335Z,14.00
2018-05-25T23:42:36.279Z,14.00
2018-05-25T23:45:02.498Z,14.00
2018-05-25T23:47:28.707Z,14.00
2018-05-25T23:49:54.925Z,14.00
2018-05-25T23:52:21.942Z,14.00
2018-05-25T23:54:48.166Z,13.90
2018-05-25T23:57:14.378Z,13.90
2018-05-25T23:59:40.615Z,13.90
